createdAt,value
2023-04-04T00:00:14.112Z,4.64
2023-04-04T00:01:14.103Z,4.69
2023-04-04T00:02:14.124Z,4.71
2023-04-04T00:03:14.190Z,4.77
2023-04-04T00:04:14.190Z,4.79
2023-04-04T00:05:14.082Z,4.75
2023-04-04T00:06:14.050Z,4.64
2023-04-04T00:07:14.028Z,4.71
2023-04-04T00:08:14.019Z,4.51
2023-04-04T00:09:14.010Z,4.59
2023-04-04T00:10:14.003Z,4.51
2023-04-04T00:11:14.000Z,4.63
2023-04-04T00:12:13.980Z,4.60
2023-04-04T00:13:13.970Z,4.64
2023-04-04T00:14:13.956Z,4.66
2023-04-04T00:15:13.945Z,4.69
2023-04-04T00:16:14.068Z,4.74
2023-04-04T00:17:13.924Z,4.69
2023-04-04T00:18:13.950Z,4.72
2023-04-04T00:19:14.091Z,4.71
2023-04-04T00:20:13.888Z,4.71
2023-04-04T00:21:13.879Z,4.72
2023-04-04T00:22:13.872Z,4.64
2023-04-04T00:23:13.862Z,4.71
2023-04-04T00:24:13.848Z,4.63
2023-04-04T00:25:13.846Z,4.61
2023-04-04T00:26:13.833Z,4.64
2023-04-04T00:27:13.803Z,4.54
2023-04-04T00:28:13.803Z,4.57
2023-04-04T00:29:13.790Z,4.53
2023-04-04T00:30:13.783Z,4.36
2023-04-04T00:31:13.800Z,4.26
2023-04-04T00:32:13.823Z,4.30
2023-04-04T00:33:13.790Z,4.36
2023-04-04T00:34:13.737Z,4.26
2023-04-04T00:35:13.716Z,4.36
2023-04-04T00:36:13.762Z,4.34
2023-04-04T00:37:13.724Z,4.36
2023-04-04T00:38:13.699Z,4.39
2023-04-04T00:39:13.691Z,4.35
2023-04-04T00:40:13.676Z,4.45
2023-04-04T00:41:13.654Z,4.41
2023-04-04T00:42:13.657Z,4.41
2023-04-04T00:43:13.631Z,4.41
2023-04-04T00:44:13.620Z,4.48
2023-04-04T00:45:13.616Z,4.43
2023-04-04T00:46:13.629Z,4.54
2023-04-04T00:47:13.612Z,4.46
2023-04-04T00:48:13.593Z,4.59
2023-04-04T00:49:13.578Z,4.59
2023-04-04T00:50:13.600Z,4.63
2023-04-04T00:51:13.568Z,4.63
2023-04-04T00:52:13.545Z,4.59
2023-04-04T00:53:13.525Z,4.63
2023-04-04T00:54:13.543Z,4.57
2023-04-04T00:55:13.513Z,4.54
2023-04-04T00:56:13.513Z,4.56
2023-04-04T00:57:13.490Z,4.51
2023-04-04T00:58:13.497Z,4.53
2023-04-04T00:59:13.501Z,4.51
2023-04-04T01:00:13.470Z,4.59
2023-04-04T01:01:13.484Z,4.48
2023-04-04T01:02:13.429Z,4.56
2023-04-04T01:03:13.427Z,4.49
2023-04-04T01:04:13.456Z,4.59
2023-04-04T01:05:13.403Z,4.56
2023-04-04T01:06:13.389Z,4.48
2023-04-04T01:07:13.386Z,4.45
2023-04-04T01:08:13.359Z,4.42
2023-04-04T01:09:13.349Z,4.38
2023-04-04T01:10:13.384Z,4.21
2023-04-04T01:11:13.339Z,4.17
2023-04-04T01:12:13.319Z,4.27
2023-04-04T01:13:13.307Z,4.20
2023-04-04T01:14:13.302Z,4.12
2023-04-04T01:15:13.304Z,4.03
2023-04-04T01:16:13.321Z,3.96
2023-04-04T01:17:13.264Z,3.98
2023-04-04T01:18:13.254Z,3.88
2023-04-04T01:19:13.237Z,3.90
2023-04-04T01:20:13.256Z,3.88
2023-04-04T01:21:13.251Z,3.76
2023-04-04T01:22:13.205Z,3.90
2023-04-04T01:23:13.202Z,3.70
2023-04-04T01:24:13.177Z,3.78
2023-04-04T01:25:13.188Z,3.76
2023-04-04T01:26:13.171Z,3.76
2023-04-04T01:27:13.145Z,3.74
2023-04-04T01:28:13.137Z,3.76
2023-04-04T01:29:13.130Z,3.60
2023-04-04T01:30:13.120Z,3.63
2023-04-04T01:31:13.138Z,3.64
2023-04-04T01:32:13.102Z,3.70
2023-04-04T01:33:13.085Z,3.62
2023-04-04T01:34:13.076Z,3.63
2023-04-04T01:35:13.082Z,3.45
2023-04-04T01:36:13.928Z,3.52
2023-04-04T01:37:13.040Z,3.51
2023-04-04T01:38:13.044Z,3.54
2023-04-04T01:39:13.015Z,3.62
2023-04-04T01:40:13.004Z,3.46
2023-04-04T01:41:12.991Z,3.51
2023-04-04T01:42:12.979Z,3.48
2023-04-04T01:43:12.972Z,3.48
2023-04-04T01:44:12.959Z,3.59
2023-04-04T01:45:12.954Z,3.48
2023-04-04T01:46:13.005Z,3.46
2023-04-04T01:47:12.938Z,3.51
2023-04-04T01:48:12.909Z,3.42
2023-04-04T01:49:12.905Z,3.48
2023-04-04T01:50:12.898Z,3.42
2023-04-04T01:51:12.893Z,3.37
2023-04-04T01:52:12.881Z,3.45
2023-04-04T01:53:12.858Z,3.51
2023-04-04T01:54:12.840Z,3.55
2023-04-04T01:55:33.841Z,3.59
2023-04-04T01:56:12.824Z,3.69
2023-04-04T01:57:12.817Z,3.73
2023-04-04T01:58:12.801Z,3.70
2023-04-04T01:59:12.807Z,3.66
2023-04-04T02:00:12.781Z,3.67
2023-04-04T02:01:12.856Z,3.70
2023-04-04T02:02:12.757Z,3.80
2023-04-04T02:03:12.761Z,3.80
2023-04-04T02:04:12.793Z,3.76
2023-04-04T02:05:12.728Z,3.82
2023-04-04T02:06:12.711Z,3.90
2023-04-04T02:07:12.716Z,3.67
2023-04-04T02:08:12.690Z,3.55
2023-04-04T02:09:12.685Z,3.41
2023-04-04T02:10:12.669Z,3.44
2023-04-04T02:11:12.645Z,3.37
2023-04-04T02:12:12.640Z,3.32
2023-04-04T02:13:12.653Z,3.41
2023-04-04T02:14:12.632Z,3.27
2023-04-04T02:15:12.613Z,3.22
2023-04-04T02:16:12.610Z,3.33
2023-04-04T02:17:12.579Z,3.41
2023-04-04T02:18:12.582Z,3.51
2023-04-04T02:19:12.560Z,3.41
2023-04-04T02:20:12.541Z,3.23
2023-04-04T02:21:12.549Z,3.20
2023-04-04T02:22:12.522Z,3.32
2023-04-04T02:23:12.512Z,3.36
2023-04-04T02:24:12.496Z,3.48
2023-04-04T02:25:12.480Z,3.45
2023-04-04T02:26:12.481Z,3.52
2023-04-04T02:27:12.471Z,3.48
2023-04-04T02:28:12.469Z,3.64
2023-04-04T02:29:12.436Z,3.56
2023-04-04T02:30:12.422Z,3.48
2023-04-04T02:31:12.414Z,3.48
2023-04-04T02:32:12.398Z,3.37
2023-04-04T02:33:12.384Z,3.44
2023-04-04T02:34:12.378Z,3.26
2023-04-04T02:35:12.372Z,3.25
2023-04-04T02:36:12.390Z,3.02
2023-04-04T02:37:12.340Z,2.99
2023-04-04T02:38:12.323Z,2.75
2023-04-04T02:39:12.312Z,2.71
2023-04-04T02:40:12.316Z,2.58
2023-04-04T02:41:12.296Z,2.73
2023-04-04T02:42:12.299Z,2.86
2023-04-04T02:43:12.260Z,2.72
2023-04-04T02:44:12.254Z,2.75
2023-04-04T02:45:12.244Z,2.66
2023-04-04T02:46:21.069Z,2.60
2023-04-04T02:47:12.326Z,2.63
2023-04-04T02:48:12.230Z,2.58
2023-04-04T02:49:12.202Z,2.58
2023-04-04T02:50:12.198Z,2.65
2023-04-04T02:51:12.163Z,2.72
2023-04-04T02:52:12.161Z,2.86
2023-04-04T02:53:12.138Z,2.94
2023-04-04T02:54:12.132Z,3.09
2023-04-04T02:55:12.143Z,3.15
2023-04-04T02:56:12.100Z,3.04
2023-04-04T02:57:12.093Z,2.96
2023-04-04T02:58:12.086Z,2.89
2023-04-04T02:59:12.101Z,2.82
2023-04-04T03:00:12.098Z,2.65
2023-04-04T03:01:12.099Z,2.69
2023-04-04T03:02:12.230Z,2.66
2023-04-04T03:03:12.204Z,2.73
2023-04-04T03:04:12.072Z,2.66
2023-04-04T03:05:12.005Z,2.75
2023-04-04T03:06:12.031Z,2.69
2023-04-04T03:07:11.968Z,2.69
2023-04-04T03:08:11.964Z,2.43
2023-04-04T03:09:11.945Z,2.42
2023-04-04T03:10:11.946Z,2.37
2023-04-04T03:11:11.924Z,2.25
2023-04-04T03:12:11.909Z,2.14
2023-04-04T03:13:11.900Z,2.06
2023-04-04T03:14:11.884Z,2.17
2023-04-04T03:15:11.862Z,2.28
2023-04-04T03:16:11.907Z,2.19
2023-04-04T03:17:11.848Z,2.21
2023-04-04T03:18:11.843Z,2.29
2023-04-04T03:19:11.829Z,2.30
2023-04-04T03:20:11.813Z,2.28
2023-04-04T03:21:11.800Z,2.24
2023-04-04T03:22:11.786Z,2.19
2023-04-04T03:23:11.768Z,2.29
2023-04-04T03:24:11.759Z,2.22
2023-04-04T03:25:11.744Z,2.29
2023-04-04T03:26:11.750Z,2.37
2023-04-04T03:27:11.712Z,2.45
2023-04-04T03:28:11.708Z,2.54
2023-04-04T03:29:11.699Z,2.66
2023-04-04T03:30:11.667Z,2.66
2023-04-04T03:31:11.655Z,2.69
2023-04-04T03:32:11.708Z,2.75
2023-04-04T03:33:11.658Z,2.72
2023-04-04T03:34:11.625Z,2.53
2023-04-04T03:35:11.612Z,2.55
2023-04-04T03:36:11.623Z,2.50
2023-04-04T03:37:11.584Z,2.47
2023-04-04T03:38:11.575Z,2.33
2023-04-04T03:39:11.554Z,2.22
2023-04-04T03:40:11.548Z,2.35
2023-04-04T03:41:11.629Z,2.42
2023-04-04T03:42:11.528Z,2.53
2023-04-04T03:43:11.499Z,2.39
2023-04-04T03:44:11.491Z,2.33
2023-04-04T03:45:11.484Z,2.28
2023-04-04T03:46:11.511Z,2.18
2023-04-04T03:47:11.464Z,2.24
2023-04-04T03:48:11.439Z,2.17
2023-04-04T03:49:11.462Z,2.07
2023-04-04T03:50:11.425Z,2.06
2023-04-04T03:51:11.402Z,1.93
2023-04-04T03:52:11.401Z,1.95
2023-04-04T03:53:11.388Z,1.89
2023-04-04T03:54:11.368Z,1.73
2023-04-04T03:55:11.366Z,1.77
2023-04-04T03:56:11.343Z,1.80
2023-04-04T03:57:11.323Z,1.74
2023-04-04T03:58:11.320Z,1.73
2023-04-04T03:59:11.361Z,1.75
2023-04-04T04:00:11.283Z,1.81
2023-04-04T04:01:11.266Z,2.01
2023-04-04T04:02:11.348Z,1.99
2023-04-04T04:03:11.283Z,1.93
2023-04-04T04:04:11.249Z,1.92
2023-04-04T04:05:11.216Z,1.93
2023-04-04T04:06:11.206Z,1.87
2023-04-04T04:07:11.194Z,1.91
2023-04-04T04:08:11.185Z,1.80
2023-04-04T04:09:11.186Z,1.78
2023-04-04T04:10:11.158Z,1.63
2023-04-04T04:11:11.143Z,1.59
2023-04-04T04:12:11.134Z,1.67
2023-04-04T04:13:11.124Z,1.62
2023-04-04T04:14:11.092Z,1.67
2023-04-04T04:15:11.109Z,1.55
2023-04-04T04:16:11.131Z,1.62
2023-04-04T04:17:11.068Z,1.78
2023-04-04T04:18:11.045Z,1.77
2023-04-04T04:19:11.052Z,1.80
2023-04-04T04:20:11.058Z,1.82
2023-04-04T04:21:11.004Z,1.84
2023-04-04T04:22:10.989Z,1.85
2023-04-04T04:23:10.979Z,1.85
2023-04-04T04:24:10.961Z,1.84
2023-04-04T04:25:10.960Z,1.74
2023-04-04T04:26:10.938Z,1.75
2023-04-04T04:27:10.928Z,1.69
2023-04-04T04:28:10.911Z,1.60
2023-04-04T04:29:10.906Z,1.49
2023-04-04T04:30:10.895Z,1.42
2023-04-04T04:31:10.911Z,1.52
2023-04-04T04:32:10.865Z,1.35
2023-04-04T04:33:10.845Z,1.30
2023-04-04T04:34:10.858Z,1.28
2023-04-04T04:35:10.824Z,1.18
2023-04-04T04:36:10.856Z,1.23
2023-04-04T04:37:10.793Z,1.17
2023-04-04T04:38:10.771Z,1.16
2023-04-04T04:39:10.770Z,1.31
2023-04-04T04:40:10.753Z,1.30
2023-04-04T04:41:10.730Z,1.35
2023-04-04T04:42:11.510Z,1.30
2023-04-04T04:43:10.709Z,1.28
2023-04-04T04:44:10.694Z,1.31
2023-04-04T04:45:10.724Z,1.28
2023-04-04T04:46:10.670Z,1.44
2023-04-04T04:47:10.651Z,1.41
2023-04-04T04:48:10.642Z,1.41
2023-04-04T04:49:10.662Z,1.46
2023-04-04T04:50:10.615Z,1.53
2023-04-04T04:51:10.609Z,1.46
2023-04-04T04:52:10.584Z,1.45
2023-04-04T04:53:10.579Z,1.49
2023-04-04T04:54:10.554Z,1.53
2023-04-04T04:55:10.549Z,1.53
2023-04-04T04:56:10.532Z,1.56
2023-04-04T04:57:10.530Z,1.56
2023-04-04T04:58:10.513Z,1.60
2023-04-04T04:59:10.498Z,1.64
2023-04-04T05:00:10.475Z,1.66
2023-04-04T05:01:10.488Z,1.75
2023-04-04T05:02:10.501Z,1.74
2023-04-04T05:03:10.451Z,1.84
2023-04-04T05:04:10.426Z,1.73
2023-04-04T05:05:10.411Z,1.77
2023-04-04T05:06:10.401Z,1.77
2023-04-04T05:07:10.380Z,1.66
2023-04-04T05:08:10.374Z,1.73
2023-04-04T05:09:10.357Z,1.73
2023-04-04T05:10:10.346Z,1.84
2023-04-04T05:11:10.334Z,1.89
2023-04-04T05:12:10.365Z,1.80
2023-04-04T05:13:10.302Z,1.75
2023-04-04T05:14:10.288Z,1.69
2023-04-04T05:15:10.275Z,1.66
2023-04-04T05:16:10.298Z,1.55
2023-04-04T05:17:10.246Z,1.62
2023-04-04T05:18:10.229Z,1.63
2023-04-04T05:19:10.223Z,1.69
2023-04-04T05:20:10.223Z,1.64
2023-04-04T05:21:10.199Z,1.60
2023-04-04T05:22:10.177Z,1.56
2023-04-04T05:23:10.165Z,1.56
2023-04-04T05:24:10.151Z,1.55
2023-04-04T05:25:10.138Z,1.48
2023-04-04T05:26:10.125Z,1.53
2023-04-04T05:27:10.115Z,1.56
2023-04-04T05:28:10.096Z,1.67
2023-04-04T05:29:10.082Z,1.67
2023-04-04T05:30:10.072Z,1.69
2023-04-04T05:31:10.057Z,1.82
2023-04-04T05:32:10.096Z,1.95
2023-04-04T05:33:10.081Z,1.99
2023-04-04T05:34:10.029Z,2.10
2023-04-04T05:35:10.017Z,2.06
2023-04-04T05:36:10.022Z,2.04
2023-04-04T05:37:09.978Z,2.04
2023-04-04T05:38:09.964Z,2.06
2023-04-04T05:39:09.946Z,2.03
2023-04-04T05:40:09.932Z,2.11
2023-04-04T05:41:09.927Z,2.14
2023-04-04T05:42:09.909Z,2.17
2023-04-04T05:43:09.895Z,2.25
2023-04-04T05:44:09.889Z,2.28
2023-04-04T05:45:09.871Z,2.32
2023-04-04T05:46:09.911Z,2.39
2023-04-04T05:47:09.845Z,2.42
2023-04-04T05:48:09.836Z,2.37
2023-04-04T05:49:09.818Z,2.28
2023-04-04T05:50:09.817Z,2.21
2023-04-04T05:51:11.253Z,2.07
2023-04-04T05:52:09.774Z,2.06
2023-04-04T05:53:09.761Z,2.06
2023-04-04T05:54:09.746Z,2.03
2023-04-04T05:55:09.736Z,2.12
2023-04-04T05:56:09.721Z,2.19
2023-04-04T05:57:09.712Z,2.11
2023-04-04T05:58:11.739Z,2.12
2023-04-04T05:59:09.726Z,2.03
2023-04-04T06:00:09.670Z,2.03
2023-04-04T06:01:09.662Z,2.19
2023-04-04T06:02:09.697Z,2.18
2023-04-04T06:03:09.729Z,2.17
2023-04-04T06:04:09.624Z,2.24
2023-04-04T06:05:09.626Z,2.15
2023-04-04T06:06:09.672Z,2.24
2023-04-04T06:07:09.576Z,2.29
2023-04-04T06:08:09.563Z,2.29
2023-04-04T06:09:09.551Z,2.24
2023-04-04T06:10:09.560Z,2.39
2023-04-04T06:11:09.524Z,2.32
2023-04-04T06:12:09.509Z,2.32
2023-04-04T06:13:09.500Z,2.42
2023-04-04T06:14:09.493Z,2.42
2023-04-04T06:15:09.487Z,2.43
2023-04-04T06:16:09.542Z,2.42
2023-04-04T06:17:09.450Z,2.42
2023-04-04T06:18:09.499Z,2.45
2023-04-04T06:19:09.418Z,2.50
2023-04-04T06:20:09.419Z,2.53
2023-04-04T06:21:09.396Z,2.50
2023-04-04T06:22:09.383Z,2.47
2023-04-04T06:23:09.370Z,2.55
2023-04-04T06:24:09.354Z,2.66
2023-04-04T06:25:09.344Z,2.69
2023-04-04T06:26:09.324Z,2.76
2023-04-04T06:27:09.308Z,2.73
2023-04-04T06:28:09.320Z,2.68
2023-04-04T06:29:09.304Z,2.75
2023-04-04T06:30:11.457Z,2.72
2023-04-04T06:31:09.284Z,2.78
2023-04-04T06:32:09.252Z,2.73
2023-04-04T06:33:09.238Z,2.87
2023-04-04T06:34:09.221Z,2.81
2023-04-04T06:35:09.201Z,2.97
2023-04-04T06:36:09.229Z,2.93
2023-04-04T06:37:09.192Z,2.94
2023-04-04T06:38:09.167Z,2.86
2023-04-04T06:39:09.161Z,2.82
2023-04-04T06:40:09.150Z,2.91
2023-04-04T06:41:09.137Z,2.96
2023-04-04T06:42:09.122Z,2.91
2023-04-04T06:43:09.113Z,2.89
2023-04-04T06:44:09.099Z,2.90
2023-04-04T06:45:09.078Z,2.91
2023-04-04T06:46:09.071Z,2.93
2023-04-04T06:47:09.056Z,2.97
2023-04-04T06:48:09.051Z,2.94
2023-04-04T06:49:09.038Z,2.97
2023-04-04T06:50:09.018Z,2.86
2023-04-04T06:51:09.015Z,2.89
2023-04-04T06:52:09.000Z,2.90
2023-04-04T06:53:08.981Z,3.04
2023-04-04T06:54:08.969Z,3.15
2023-04-04T06:55:08.958Z,3.17
2023-04-04T06:56:08.935Z,3.08
2023-04-04T06:57:08.923Z,3.12
2023-04-04T06:58:08.914Z,3.26
2023-04-04T06:59:08.925Z,3.26
2023-04-04T07:00:08.886Z,3.26
2023-04-04T07:01:08.909Z,3.26
2023-04-04T07:02:08.875Z,3.27
2023-04-04T07:03:08.903Z,3.33
2023-04-04T07:04:08.835Z,3.23
2023-04-04T07:05:08.827Z,3.33
2023-04-04T07:06:08.819Z,3.45
2023-04-04T07:07:08.800Z,3.44
2023-04-04T07:08:08.838Z,3.54
2023-04-04T07:09:15.408Z,3.59
2023-04-04T07:10:08.767Z,3.64
2023-04-04T07:11:08.736Z,3.64
2023-04-04T07:12:08.727Z,3.63
2023-04-04T07:13:08.726Z,3.67
2023-04-04T07:14:08.709Z,3.64
2023-04-04T07:15:08.695Z,3.74
2023-04-04T07:16:08.717Z,3.76
2023-04-04T07:17:21.239Z,3.72
2023-04-04T07:18:08.691Z,3.81
2023-04-04T07:19:08.645Z,3.69
2023-04-04T07:20:08.640Z,3.74
2023-04-04T07:21:08.629Z,3.80
2023-04-04T07:22:08.612Z,3.73
2023-04-04T07:23:08.599Z,3.78
2023-04-04T07:24:08.579Z,3.80
2023-04-04T07:25:08.603Z,3.82
2023-04-04T07:26:08.562Z,3.92
2023-04-04T07:27:08.543Z,3.94
2023-04-04T07:28:13.033Z,3.96
2023-04-04T07:29:08.520Z,4.10
2023-04-04T07:30:08.508Z,4.16
2023-04-04T07:31:08.490Z,4.16
2023-04-04T07:32:08.612Z,4.26
2023-04-04T07:33:08.513Z,4.17
2023-04-04T07:34:08.450Z,4.24
2023-04-04T07:35:08.448Z,4.23
2023-04-04T07:36:08.468Z,4.35
2023-04-04T07:37:08.418Z,4.41
2023-04-04T07:38:08.405Z,4.49
2023-04-04T07:39:08.393Z,4.49
2023-04-04T07:40:08.382Z,4.46
2023-04-04T07:41:08.376Z,4.45
2023-04-04T07:42:08.357Z,4.35
2023-04-04T07:43:08.357Z,4.35
2023-04-04T07:44:08.358Z,4.38
2023-04-04T07:45:08.338Z,4.48
2023-04-04T07:46:08.370Z,4.48
2023-04-04T07:47:10.281Z,4.46
2023-04-04T07:48:08.293Z,4.41
2023-04-04T07:49:08.287Z,4.39
2023-04-04T07:50:08.265Z,4.42
2023-04-04T07:51:08.248Z,4.46
2023-04-04T07:52:08.238Z,4.39
2023-04-04T07:53:08.229Z,4.46
2023-04-04T07:54:08.216Z,4.56
2023-04-04T07:55:08.198Z,4.54
2023-04-04T07:56:08.194Z,4.63
2023-04-04T07:57:08.184Z,4.60
2023-04-04T07:58:08.162Z,4.67
2023-04-04T07:59:08.233Z,4.67
2023-04-04T08:00:08.140Z,4.79
2023-04-04T08:01:08.136Z,4.82
2023-04-04T08:02:08.118Z,4.79
2023-04-04T08:03:08.139Z,4.89
2023-04-04T08:04:08.145Z,4.93
2023-04-04T08:05:08.093Z,5.04
2023-04-04T08:06:08.064Z,5.01
2023-04-04T08:07:08.056Z,4.83
2023-04-04T08:08:08.062Z,4.97
2023-04-04T08:09:08.187Z,5.01
2023-04-04T08:10:08.025Z,5.07
2023-04-04T08:11:08.011Z,4.96
2023-04-04T08:12:08.013Z,5.16
2023-04-04T08:13:07.996Z,5.12
2023-04-04T08:14:07.982Z,5.12
2023-04-04T08:15:07.968Z,5.14
2023-04-04T08:16:07.994Z,5.15
2023-04-04T08:17:07.945Z,5.29
2023-04-04T08:18:08.011Z,5.32
2023-04-04T08:19:08.029Z,5.25
2023-04-04T08:20:07.911Z,5.27
2023-04-04T08:21:07.891Z,5.36
2023-04-04T08:22:07.880Z,5.40
2023-04-04T08:23:07.874Z,5.43
2023-04-04T08:24:07.931Z,5.44
2023-04-04T08:25:07.851Z,5.48
2023-04-04T08:26:07.835Z,5.43
2023-04-04T08:27:07.831Z,5.55
2023-04-04T08:28:07.822Z,5.51
2023-04-04T08:29:07.915Z,5.55
2023-04-04T08:30:07.794Z,5.69
2023-04-04T08:31:07.793Z,5.59
2023-04-04T08:32:07.773Z,5.57
2023-04-04T08:33:07.817Z,5.75
2023-04-04T08:34:07.750Z,5.75
2023-04-04T08:35:07.736Z,5.57
2023-04-04T08:36:07.795Z,5.61
2023-04-04T08:37:07.711Z,5.66
2023-04-04T08:38:07.710Z,5.67
2023-04-04T08:39:07.691Z,5.72
2023-04-04T08:40:07.685Z,5.80
2023-04-04T08:41:07.674Z,6.06
2023-04-04T08:42:07.709Z,6.19
2023-04-04T08:43:07.648Z,6.24
2023-04-04T08:44:07.640Z,6.13
2023-04-04T08:45:07.618Z,6.13
2023-04-04T08:46:08.881Z,6.37
2023-04-04T08:47:07.626Z,6.28
2023-04-04T08:48:07.685Z,6.21
2023-04-04T08:49:07.583Z,6.32
2023-04-04T08:50:07.572Z,6.32
2023-04-04T08:51:07.559Z,6.34
2023-04-04T08:52:07.600Z,6.35
2023-04-04T08:53:07.545Z,6.40
2023-04-04T08:54:07.545Z,6.42
2023-04-04T08:55:07.519Z,6.38
2023-04-04T08:56:07.511Z,6.55
2023-04-04T08:57:07.502Z,6.56
2023-04-04T08:58:07.489Z,6.56
2023-04-04T08:59:07.532Z,6.42
2023-04-04T09:00:07.607Z,6.34
2023-04-04T09:01:07.519Z,6.32
2023-04-04T09:02:07.444Z,6.35
2023-04-04T09:03:08.041Z,6.35
2023-04-04T09:04:07.423Z,6.43
2023-04-04T09:05:07.571Z,6.46
2023-04-04T09:06:07.401Z,6.47
2023-04-04T09:07:07.389Z,6.52
2023-04-04T09:08:07.391Z,6.60
2023-04-04T09:09:07.374Z,6.57
2023-04-04T09:10:07.363Z,6.67
2023-04-04T09:11:07.348Z,6.70
2023-04-04T09:12:07.343Z,6.79
2023-04-04T09:13:15.654Z,6.82
2023-04-04T09:14:07.327Z,6.64
2023-04-04T09:15:07.305Z,6.56
2023-04-04T09:16:07.376Z,6.47
2023-04-04T09:17:07.294Z,6.56
2023-04-04T09:18:07.285Z,6.57
2023-04-04T09:19:07.264Z,6.55
2023-04-04T09:20:07.256Z,6.68
2023-04-04T09:21:07.242Z,6.82
2023-04-04T09:22:07.233Z,7.01
2023-04-04T09:23:07.223Z,7.04
2023-04-04T09:24:07.215Z,7.04
2023-04-04T09:25:07.200Z,7.07
2023-04-04T09:26:07.184Z,7.07
2023-04-04T09:27:07.172Z,7.06
2023-04-04T09:28:07.160Z,6.93
2023-04-04T09:29:07.158Z,6.85
2023-04-04T09:30:07.156Z,7.03
2023-04-04T09:31:07.140Z,7.06
2023-04-04T09:32:07.191Z,7.10
2023-04-04T09:33:07.345Z,7.08
2023-04-04T09:34:07.110Z,7.24
2023-04-04T09:35:07.100Z,7.24
2023-04-04T09:36:07.179Z,7.10
2023-04-04T09:37:07.097Z,7.06
2023-04-04T09:38:07.063Z,7.18
2023-04-04T09:39:07.054Z,7.25
2023-04-04T09:40:07.084Z,7.34
2023-04-04T09:41:07.035Z,7.37
2023-04-04T09:42:07.027Z,7.49
2023-04-04T09:43:07.124Z,7.46
2023-04-04T09:44:07.005Z,7.34
2023-04-04T09:45:07.008Z,7.31
2023-04-04T09:46:07.014Z,7.40
2023-04-04T09:47:06.976Z,7.43
2023-04-04T09:48:07.034Z,7.71
2023-04-04T09:49:06.971Z,7.95
2023-04-04T09:50:06.950Z,8.10
2023-04-04T09:51:06.936Z,7.95
2023-04-04T09:52:06.927Z,7.91
2023-04-04T09:53:06.931Z,7.68
2023-04-04T09:54:10.885Z,7.71
2023-04-04T09:55:06.936Z,8.06
2023-04-04T09:56:06.984Z,8.23
2023-04-04T09:57:06.884Z,8.31
2023-04-04T09:58:06.875Z,8.37
2023-04-04T09:59:06.976Z,8.44
2023-04-04T10:00:06.884Z,8.72
2023-04-04T10:01:06.876Z,8.85
2023-04-04T10:02:06.846Z,8.98
2023-04-04T10:03:06.845Z,9.12
2023-04-04T10:04:06.892Z,9.09
2023-04-04T10:05:07.044Z,8.93
2023-04-04T10:06:07.551Z,9.15
2023-04-04T10:07:06.828Z,9.32
2023-04-04T10:08:06.797Z,9.47
2023-04-04T10:09:06.796Z,9.42
2023-04-04T10:10:06.798Z,9.37
2023-04-04T10:11:12.013Z,9.34
2023-04-04T10:12:06.769Z,9.55
2023-04-04T10:13:06.760Z,9.51
2023-04-04T10:14:06.817Z,9.66
2023-04-04T10:15:06.758Z,9.66
2023-04-04T10:16:06.778Z,9.85
2023-04-04T10:17:09.130Z,9.70
2023-04-04T10:18:06.733Z,9.60
2023-04-04T10:19:06.724Z,9.73
2023-04-04T10:20:06.718Z,9.78
2023-04-04T10:22:06.698Z,9.55
2023-04-04T10:23:06.699Z,9.83
2023-04-04T10:24:06.697Z,9.66
2023-04-04T10:25:06.688Z,10.08
2023-04-04T10:26:06.686Z,10.02
2023-04-04T10:27:06.682Z,9.70
2023-04-04T10:28:06.674Z,9.90
2023-04-04T10:29:06.667Z,9.69
2023-04-04T10:30:06.663Z,9.60
2023-04-04T10:31:07.387Z,9.91
2023-04-04T10:32:06.768Z,9.87
2023-04-04T10:33:06.695Z,9.98
2023-04-04T10:34:06.644Z,10.01
2023-04-04T10:35:06.645Z,10.34
2023-04-04T10:36:06.750Z,11.00
2023-04-04T10:37:06.647Z,11.15
2023-04-04T10:38:06.628Z,11.20
2023-04-04T10:39:06.623Z,11.51
2023-04-04T10:40:06.637Z,11.51
2023-04-04T10:41:06.612Z,11.59
2023-04-04T10:42:06.609Z,11.80
2023-04-04T10:43:06.604Z,11.84
2023-04-04T10:44:06.602Z,12.03
2023-04-04T10:45:19.870Z,12.38
2023-04-04T10:46:06.602Z,12.30
2023-04-04T10:47:06.589Z,11.96
2023-04-04T10:48:08.803Z,11.80
2023-04-04T10:49:06.598Z,11.80
2023-04-04T10:50:06.593Z,12.17
2023-04-04T10:51:06.575Z,11.71
2023-04-04T10:52:06.561Z,11.48
2023-04-04T10:53:06.563Z,11.30
2023-04-04T10:54:06.568Z,10.98
2023-04-04T10:55:06.560Z,11.16
2023-04-04T10:56:06.557Z,11.66
2023-04-04T10:57:06.550Z,11.82
2023-04-04T10:58:06.558Z,11.59
2023-04-04T10:59:06.553Z,11.05
2023-04-04T11:00:06.571Z,11.40
2023-04-04T11:01:06.547Z,10.97
2023-04-04T11:02:06.548Z,11.18
2023-04-04T11:03:06.557Z,11.28
2023-04-04T11:04:06.552Z,11.84
2023-04-04T11:05:06.527Z,11.58
2023-04-04T11:06:06.526Z,11.52
2023-04-04T11:07:06.566Z,11.80
2023-04-04T11:08:08.571Z,11.41
2023-04-04T11:09:06.526Z,11.43
2023-04-04T11:10:06.512Z,11.58
2023-04-04T11:11:16.065Z,11.80
2023-04-04T11:12:06.497Z,11.89
2023-04-04T11:13:12.668Z,12.10
2023-04-04T11:14:06.503Z,12.23
2023-04-04T11:15:06.505Z,12.22
2023-04-04T11:16:06.530Z,12.50
2023-04-04T11:17:06.494Z,12.04
2023-04-04T11:18:21.428Z,11.76
2023-04-04T11:19:06.484Z,11.89
2023-04-04T11:20:06.478Z,12.29
2023-04-04T11:21:06.478Z,12.11
2023-04-04T11:22:06.474Z,12.07
2023-04-04T11:23:06.492Z,12.40
2023-04-04T11:24:06.465Z,12.55
2023-04-04T11:25:06.466Z,12.54
2023-04-04T11:26:06.485Z,12.44
2023-04-04T11:27:06.456Z,12.48
2023-04-04T11:28:06.450Z,12.00
2023-04-04T11:29:06.471Z,11.80
2023-04-04T11:30:07.442Z,11.09
2023-04-04T11:31:06.448Z,11.34
2023-04-04T11:32:06.461Z,11.55
2023-04-04T11:33:08.203Z,11.59
2023-04-04T11:34:06.441Z,11.48
2023-04-04T11:35:06.455Z,11.71
2023-04-04T11:36:08.403Z,11.40
2023-04-04T11:37:06.427Z,11.12
2023-04-04T11:38:06.435Z,10.75
2023-04-04T11:39:06.440Z,10.95
2023-04-04T11:40:06.421Z,10.90
2023-04-04T11:41:06.464Z,11.05
2023-04-04T11:42:06.420Z,11.09
2023-04-04T11:43:06.414Z,11.05
2023-04-04T11:44:06.411Z,10.90
2023-04-04T11:45:06.406Z,10.70
2023-04-04T11:46:06.425Z,10.57
2023-04-04T11:47:06.408Z,10.65
2023-04-04T11:48:06.391Z,10.67
2023-04-04T11:49:06.387Z,11.00
2023-04-04T11:50:06.387Z,11.08
2023-04-04T11:51:06.373Z,10.72
2023-04-04T11:52:06.386Z,10.76
2023-04-04T11:53:06.373Z,10.68
2023-04-04T11:54:06.364Z,10.75
2023-04-04T11:55:06.368Z,10.73
2023-04-04T11:56:06.356Z,10.45
2023-04-04T11:57:06.349Z,10.17
2023-04-04T11:58:06.372Z,10.28
2023-04-04T11:59:11.704Z,10.17
2023-04-04T12:00:06.345Z,10.20
2023-04-04T12:01:06.335Z,10.26
2023-04-04T12:02:06.349Z,10.55
2023-04-04T12:03:06.351Z,10.21
2023-04-04T12:04:06.320Z,10.31
2023-04-04T12:05:06.345Z,10.61
2023-04-04T12:06:06.405Z,10.75
2023-04-04T12:07:06.299Z,10.87
2023-04-04T12:08:06.285Z,10.91
2023-04-04T12:09:06.289Z,11.04
2023-04-04T12:10:06.323Z,10.98
2023-04-04T12:11:06.269Z,11.15
2023-04-04T12:12:06.262Z,11.08
2023-04-04T12:13:06.255Z,11.28
2023-04-04T12:14:06.267Z,11.38
2023-04-04T12:15:14.866Z,11.22
2023-04-04T12:16:06.264Z,11.09
2023-04-04T12:17:06.222Z,10.90
2023-04-04T12:18:06.280Z,10.87
2023-04-04T12:19:06.219Z,11.15
2023-04-04T12:20:06.216Z,11.33
2023-04-04T12:21:06.196Z,11.43
2023-04-04T12:22:06.199Z,11.33
2023-04-04T12:23:06.213Z,11.13
2023-04-04T12:24:06.184Z,11.09
2023-04-04T12:25:06.211Z,11.11
2023-04-04T12:26:06.174Z,11.22
2023-04-04T12:27:06.196Z,11.31
2023-04-04T12:28:06.175Z,11.41
2023-04-04T12:29:06.246Z,11.37
2023-04-04T12:30:06.148Z,11.23
2023-04-04T12:31:06.178Z,11.19
2023-04-04T12:32:06.154Z,11.05
2023-04-04T12:33:06.200Z,11.19
2023-04-04T12:34:06.136Z,11.20
2023-04-04T12:35:06.144Z,11.23
2023-04-04T12:36:06.160Z,11.41
2023-04-04T12:37:06.104Z,11.48
2023-04-04T12:38:06.093Z,11.64
2023-04-04T12:39:06.120Z,11.62
2023-04-04T12:40:06.072Z,11.70
2023-04-04T12:41:06.083Z,11.76
2023-04-04T12:42:06.061Z,11.84
2023-04-04T12:43:06.081Z,11.49
2023-04-04T12:44:06.061Z,11.40
2023-04-04T12:45:06.044Z,11.30
2023-04-04T12:46:06.045Z,11.41
2023-04-04T12:47:06.126Z,11.77
2023-04-04T12:48:06.048Z,11.99
2023-04-04T12:49:06.021Z,11.97
2023-04-04T12:50:06.018Z,11.88
2023-04-04T12:51:06.020Z,11.74
2023-04-04T12:52:06.004Z,11.71
2023-04-04T12:53:24.263Z,11.77
2023-04-04T12:54:05.995Z,11.79
2023-04-04T12:55:08.461Z,11.46
2023-04-04T12:56:05.968Z,11.13
2023-04-04T12:57:05.959Z,11.23
2023-04-04T12:58:05.979Z,11.36
2023-04-04T12:59:06.011Z,11.28
2023-04-04T13:00:05.955Z,11.38
2023-04-04T13:01:05.940Z,11.31
2023-04-04T13:02:05.930Z,11.43
2023-04-04T13:03:05.948Z,11.59
2023-04-04T13:04:06.011Z,11.74
2023-04-04T13:05:05.910Z,11.67
2023-04-04T13:06:05.985Z,11.73
2023-04-04T13:07:05.900Z,11.62
2023-04-04T13:08:05.905Z,11.27
2023-04-04T13:09:05.888Z,11.05
2023-04-04T13:10:05.867Z,11.15
2023-04-04T13:11:05.878Z,11.27
2023-04-04T13:12:05.863Z,11.27
2023-04-04T13:13:05.859Z,11.18
2023-04-04T13:14:05.884Z,11.27